首页
METAR-TAF:

METAR-TAF

机场 :

豪尔赫·查韦斯国际机场

利馬, 秘鲁

纬度: 12-00S, 经度: 077-07W, 海拔: 12米

当前天气观测

该预报发布于56分钟前的00:00 UTC
风速6节,风向
温度 17°C
湿度 82%
气压 1018 hPa
能见度10公里或以上
阴天层高于2200英尺

METAR: SPJC 210000Z 17006KT 9999 OVC022 17/14 Q1018 NOSIG RMK PP000

时间: 19:56 (00:56 UTC)

预报

该预报发布于1小时和56分钟前的23:00 UTC
预报有效从21日的 00点(UTC)到 21日的 24点(UTC)
风速5节,风向
能见度10公里或以上
少量云层高于1000英尺
阴天层高于2000英尺
成为
从 21日的 04点(UTC)到 21日的 06点(UTC)
能見度: 5000
阴天层高于1000英尺
轻雾
成为
从 21日的 13点(UTC)到 21日的 15点(UTC)
风速8节,风向
能见度10公里或以上
阴天层高于1500英尺
散云层高于1500英尺
阴天层高于2000英尺

TAF: SPJC 202300Z 2100/2124 18005KT 9999 FEW010 OVC020 TX18/2119Z TN15/2111Z BECMG 2104/2106 5000 BR OVC010 BECMG 2113/2115 8000 NSW OVC015 FN21200 19008KT 9999 SCT015 OVC020

超过4000个机场的气象观测和天气预报(METAR&TAF报告)。

可查询的气象台以黄色和红色小点在地图上表示。

将鼠标移到小点上方,可查看气象台名称。

然后点击查看天气观测和预报。

如需切换地图:点击带黑十字的绿色按钮放大地图;点击带横线的绿色按钮缩小地图;或者点击绿色箭头查看邻近地区的地图。


METAR-TAF: